• Join FlightAware (Why Join?)
  • Login
  • US Flag 
Trick or treat! (Boo!!) 
04:48AM EDT


 

Airport Tracker/Info


-or-


 

Live Flight TrackerFlight Track Log ✈ N960DL ✈ 26-May-2013 ✈ KMEM - KATL

Flight Track Log - Related Links

Times and Time Zones

All times are in EDT time to prevent confusion due to time zone crossing. See the N960DL flight status page for this flight to view local times or setup timezone preferences in your user account.

Time Position Orientation Groundspeed Altitude Reporting Facility
EDT Latitude Longitude Course Direction KTS MPH feet Rate Location/Type
07:56PM 35.0167 -89.9667 98° East 170 196 1,700  Level KMEM
07:57PM 34.9667 -89.9667 180° South 246 283 3,400 2,580 Climbing KMEM
07:58PM 34.9333 -89.8833 116° Southeast 288 331 6,900 2,640 Climbing KMEM
07:59PM 34.9308 -89.4892 103° East  Level Estimated
08:00PM 34.9222 -89.3632 95° East  Level FlightAware Approximate
08:00PM 34.9242 -89.6858 93° East 312 359 11,300  Level Memphis Center
08:01PM 34.8934 -89.2418 98° East  Level Estimated
08:01PM 34.9150 -89.5542 95° East 355 409 13,500  Level Memphis Center
08:02PM 34.9100 -89.4175 93° East 390 449 16,100 2,400 Climbing Memphis Center
08:03PM 34.9067 -89.2758 92° East 413 475 18,300 2,220 Climbing Memphis Center
08:04PM 34.8989 -89.1292 94° East 425 489 20,600 2,100 Climbing Memphis Center
08:05PM 34.8744 -88.9775 101° East 444 511 22,500 1,680 Climbing Memphis Center
08:06PM 34.8475 -88.8261 102° East 458 527 24,000 1,560 Climbing Memphis Center
08:07PM 34.8250 -88.6850 101° East 463 533 25,700 1,800 Climbing Memphis Center
08:08PM 34.7956 -88.5261 103° East 474 545 27,600 1,680 Climbing Memphis Center
08:09PM 34.7639 -88.3600 103° East 466 536 29,100 1,500 Climbing Memphis Center
08:10PM 34.7361 -88.2014 102° East 471 542 30,700 900 Climbing Memphis Center
08:11PM 34.7083 -88.0506 103° East 494 568 31,000 120 Climbing Memphis Center
08:12PM 34.6825 -87.8972 102° East 478 550 31,000  Level Memphis Center
08:13PM 34.6519 -87.7264 102° East 478 550 31,000  Level Memphis Center
08:14PM 34.6253 -87.5683 102° East 472 543 31,000  Level Memphis Center
08:15PM 34.6011 -87.4203 101° East 452 520 31,000  Level Memphis Center
08:16PM 34.5875 -87.3189 99° East 453 521 31,000  Level Atlanta Center
08:17PM 34.5603 -87.1664 102° East 491 565 31,000  Level Atlanta Center
08:18PM 34.5328 -87.0092 102° East 473 544 31,000  Level Atlanta Center
08:19PM 34.5067 -86.8744 103° East 467 537 31,000 -240 Level Atlanta Center
08:20PM 34.4789 -86.7200 102° East 467 537 30,600 -480 Descending Atlanta Center
08:21PM 34.4489 -86.5603 103° East 472 543 30,100 -540 Descending Atlanta Center
08:22PM 34.4206 -86.4033 102° East 472 543 29,600 -540 Descending Atlanta Center
08:23PM 34.3903 -86.2464 103° East 472 543 29,100 -540 Descending Atlanta Center
08:24PM 34.3572 -86.0947 105° East 472 543 28,600 -540 Descending Atlanta Center
08:25PM 34.3286 -85.9406 103° East 472 543 28,100 -1,020 Descending Atlanta Center
08:26PM 34.2975 -85.7764 103° East 465 535 26,600 -1,740 Descending Atlanta Center
08:27PM 34.2703 -85.6250 102° East 460 529 24,700 -1,860 Descending Atlanta Center
08:28PM 34.2428 -85.4939 104° East 450 518 22,900 -2,040 Descending Atlanta Center
08:29PM 34.2131 -85.3575 105° East 433 498 20,700 -2,400 Descending Atlanta Center
08:30PM 34.1872 -85.2242 103° East 412 474 18,100 -2,400 Descending Atlanta Center
08:31PM 34.1508 -85.0981 109° East 397 457 15,900 -2,100 Descending Atlanta Center
08:32PM 34.0786 -85.0019 132° Southeast 382 440 14,000 -1,200 Descending Atlanta Center
08:33PM 34.0061 -84.9108 134° Southeast 382 440 13,500 -540 Descending Atlanta Center
08:34PM 33.9336 -84.8200 134° Southeast 382 440 13,000 -600 Descending Atlanta Center
08:35PM 33.8611 -84.7292 134° Southeast 382 440 12,300 -660 Descending Atlanta Center
08:35PM 33.8000 -84.6500 133° Southeast 365 420 12,000 -240 Descending Atlanta TRACON
08:36PM 33.7500 -84.5833 132° Southeast 289 333 12,000 -900 Level Atlanta TRACON
08:37PM 33.7333 -84.5000 104° East 257 296 10,300 -1,860 Descending Atlanta TRACON
08:38PM 33.7333 -84.4333 90° East 255 293 8,500 -2,100 Descending Atlanta TRACON
08:39PM 33.7333 -84.3500 90° East 238 274 6,400 -2,100 Descending Atlanta TRACON
08:40PM 33.7333 -84.2833 90° East 233 268 4,300 -1,680 Descending Atlanta TRACON
08:41PM 33.6667 -84.2667 168° South 228 262 2,900 -1,320 Descending Atlanta TRACON